Carsoli, Italy

5:09 PM CEST on September 25, 2018 (GMT +0200)
Località Pezzetaglie | | Change Station

Elev 2008 ft 42.10 °N, 13.09 °E | Updated 4 seconds ago

Clear
Clear
67.6 °F
Feels Like 67.6 °F
N
8.2
Wind Variable Wind from South
Gusts 18.3 mph

Today
High -- | Low -- °F
--% Chance of Precip.
Yesterday
High -- | Low -- °F
Precip. -- in
Pressure 30.21 in
Visibility 6.2 miles
Clouds Few 3500 ft
Dew Point 33 °F
Humidity 28%
Rainfall 0.00 in
Snow Depth Not available.
6:57 AM 7:00 PM
Full, 100% visible
METAR LIRH 251355Z 15005KT 9999 FEW035 25/11 Q1023
Pressure 30.21 in
Visibility 6.2 miles
Clouds Few 3500 ft
Dew Point 33 °F
Humidity 28%
Rainfall 0.00 in
Snow Depth Not available.
6:57 AM 7:00 PM
Full, 100% visible
METAR LIRH 251355Z 15005KT 9999 FEW035 25/11 Q1023

Get Severe Weather Alerts

Thanks for signing up!

Be on the lookout for a verification email in your inbox.

You'll start receiving the daily forecast at 6 AM.

×

10-Day Weather Forecast

×

Almanac

Astronomy

Sep. 25, 2018 Rise Set
Actual Time
Civil Twilight
Nautical Twilight
Astronomical Twilight
Moon
Length of Visible Light
Length of Day
Tomorrow will be .
, % of the Moon is Illuminated

Today's Extremes

Country Highs Country Lows

Community

WunderPhotos

Category 6

Welcome to Category 6. This is the collective home for Weather Underground's featured writeups by Dr. Jeff Masters (right), Bob Henson (left), Chris Burt, and other regular contributors.

Nearby

Air Quality

  Air Quality AQ Index Pollutant
Not available.

Snow Depth

Station Depth Elevation

Earthquake Activity

City Distance Mag. Time & Date
Minimum magnitude displayed is 2.5.

Coastal Water Temperatures

Place Temperature

Stations

Nearby Weather Stations

Station Location Temp. Windchill Dew Point Humidity Wind Precip. Elev Updated Type